Bristol, New Hampshire
Current Conditions -  °F | °C
As of 12:35 AM on Saturday 25 Oct 2014 (Local Time) from K1P1 Reporting Station
Broken Clouds Broken Clouds  
Wind Chill: 40°   Ceiling: 10000
Heat Index: 46°   Visibility: 10mi
Dew Point: 42°   Wind: 14mph
Humidity: 87%   Direction: 290°WNW
Pressure: 29.74"   Gusts: 25mph
Location:  43.6°N, 71.75°W
Report Text: K1P1 250435Z AUTO 29012G22KT 10SM BKN100 08/06 A2974 RMK AO2 T00770057
Loading
Personal Weather Stations






























Interactive Weather Map New forecast layout! Learn more

10-Day Weather Forecast

Advertisements
Track Severe Weather on mobile